createdAt,value
2023-01-05T00:00:15.555Z,3.58
2023-01-05T00:03:02.610Z,3.38
2023-01-05T00:05:29.676Z,3.20
2023-01-05T00:07:56.724Z,3.50
2023-01-05T00:10:42.129Z,3.47
2023-01-05T00:13:27.817Z,3.42
2023-01-05T00:16:13.300Z,3.10
2023-01-05T00:21:44.351Z,3.13
2023-01-05T00:26:38.087Z,3.80
2023-01-05T00:29:05.137Z,4.00
2023-01-05T00:31:31.896Z,3.35
2023-01-05T00:33:59.074Z,3.35
2023-01-05T00:36:25.787Z,3.45
2023-01-05T00:38:53.907Z,3.65
2023-01-05T00:41:20.661Z,3.45
2023-01-05T00:43:47.703Z,3.25
2023-01-05T00:46:14.464Z,2.97
2023-01-05T00:48:41.545Z,3.67
2023-01-05T00:51:08.330Z,3.63
2023-01-05T00:53:35.347Z,3.13
2023-01-05T00:56:02.089Z,3.85
2023-01-05T00:58:29.164Z,3.40
2023-01-05T01:00:55.937Z,3.22
2023-01-05T01:03:23.109Z,3.38
2023-01-05T01:05:57.487Z,3.20
2023-01-05T01:08:24.623Z,3.40
2023-01-05T01:10:51.401Z,3.30
2023-01-05T01:13:18.419Z,3.25
2023-01-05T01:15:45.190Z,3.53
2023-01-05T01:18:12.238Z,2.95
2023-01-05T01:20:39.685Z,3.53
2023-01-05T01:23:06.763Z,3.42
2023-01-05T01:25:33.493Z,2.80
2023-01-05T01:28:01.430Z,2.90
2023-01-05T01:30:28.243Z,2.90
2023-01-05T01:32:55.320Z,3.10
2023-01-05T01:35:22.070Z,2.72
2023-01-05T01:37:49.085Z,2.95
2023-01-05T01:40:15.815Z,3.00
2023-01-05T01:42:43.839Z,2.55
2023-01-05T01:45:22.972Z,2.38
2023-01-05T01:47:54.649Z,2.88
2023-01-05T01:50:27.384Z,2.47
2023-01-05T01:52:56.514Z,2.30
2023-01-05T01:55:23.284Z,2.45
2023-01-05T01:57:50.356Z,2.15
2023-01-05T02:00:17.310Z,2.45
2023-01-05T02:02:46.575Z,2.25
2023-01-05T02:05:13.306Z,2.72
2023-01-05T02:07:47.924Z,1.52
2023-01-05T02:10:16.934Z,2.00
2023-01-05T02:12:53.060Z,2.40
2023-01-05T02:15:34.989Z,1.65
2023-01-05T02:18:20.690Z,1.77
2023-01-05T02:21:06.599Z,1.92
2023-01-05T02:24:00.871Z,1.98
2023-01-05T02:26:53.288Z,2.03
2023-01-05T02:29:49.726Z,1.77
2023-01-05T02:35:06.014Z,1.95
2023-01-05T02:37:40.845Z,1.50
2023-01-05T02:40:42.399Z,2.00
2023-01-05T02:43:10.005Z,1.63
2023-01-05T02:45:37.053Z,2.15
2023-01-05T02:48:04.867Z,1.85
2023-01-05T02:50:44.288Z,2.15
2023-01-05T02:53:18.327Z,2.45
2023-01-05T02:55:49.829Z,2.33
2023-01-05T02:58:23.771Z,2.40
2023-01-05T03:00:53.158Z,1.88
2023-01-05T03:03:23.579Z,1.98
2023-01-05T03:05:54.847Z,2.22
2023-01-05T03:08:32.097Z,1.67
2023-01-05T03:11:25.636Z,1.55
2023-01-05T03:14:13.760Z,1.65
2023-01-05T03:16:40.906Z,1.52
2023-01-05T03:19:31.330Z,1.60
2023-01-05T03:22:16.939Z,1.52
2023-01-05T03:25:02.296Z,1.45
2023-01-05T03:27:48.480Z,1.58
2023-01-05T03:30:33.875Z,1.40
2023-01-05T03:35:49.056Z,1.17
2023-01-05T03:38:27.989Z,1.40
2023-01-05T03:40:57.269Z,1.20
2023-01-05T03:43:24.348Z,1.48
2023-01-05T03:45:56.283Z,1.45
2023-01-05T03:48:24.355Z,1.35
2023-01-05T03:50:51.120Z,1.30
2023-01-05T03:53:18.401Z,1.45
2023-01-05T03:55:45.128Z,1.25
2023-01-05T03:58:12.192Z,1.55
2023-01-05T04:00:38.985Z,1.20
2023-01-05T04:03:06.256Z,1.42
2023-01-05T04:05:33.150Z,0.93
2023-01-05T04:08:00.403Z,1.20
2023-01-05T04:10:27.227Z,1.10
2023-01-05T04:12:54.220Z,0.80
2023-01-05T04:15:20.974Z,1.35
2023-01-05T04:17:48.052Z,1.20
2023-01-05T04:20:14.869Z,0.65
2023-01-05T04:22:42.019Z,1.02
2023-01-05T04:25:08.990Z,1.08
2023-01-05T04:27:36.054Z,0.70
2023-01-05T04:30:02.957Z,1.30
2023-01-05T04:32:30.317Z,0.90
2023-01-05T04:34:57.093Z,1.25
2023-01-05T04:37:24.169Z,1.00
2023-01-05T04:39:50.924Z,1.02
2023-01-05T04:42:18.040Z,0.70
2023-01-05T04:44:44.755Z,0.85
2023-01-05T04:47:11.780Z,1.10
2023-01-05T04:49:38.538Z,0.90
2023-01-05T04:52:06.281Z,1.40
2023-01-05T04:54:33.127Z,1.25
2023-01-05T04:57:00.166Z,1.10
2023-01-05T04:59:26.900Z,1.00
2023-01-05T05:01:54.071Z,1.05
2023-01-05T05:04:20.905Z,1.70
2023-01-05T05:06:48.039Z,0.90
2023-01-05T05:09:14.768Z,1.13
2023-01-05T05:11:41.810Z,1.25
2023-01-05T05:14:08.682Z,1.20
2023-01-05T05:16:35.725Z,1.30
2023-01-05T05:19:02.468Z,2.00
2023-01-05T05:21:29.555Z,1.60
2023-01-05T05:23:56.344Z,1.40
2023-01-05T05:26:23.495Z,1.38
2023-01-05T05:28:50.301Z,1.70
2023-01-05T05:31:19.356Z,1.65
2023-01-05T05:33:46.264Z,1.95
2023-01-05T05:36:13.354Z,1.98
2023-01-05T05:38:40.120Z,1.80
2023-01-05T05:41:07.312Z,1.70
2023-01-05T05:43:34.094Z,1.70
2023-01-05T05:46:01.262Z,2.33
2023-01-05T05:48:28.061Z,1.90
2023-01-05T05:50:55.291Z,1.50
2023-01-05T05:53:22.093Z,1.85
2023-01-05T05:55:50.013Z,2.13
2023-01-05T05:58:19.907Z,2.42
2023-01-05T06:00:47.281Z,2.58
2023-01-05T06:03:14.320Z,2.95
2023-01-05T06:05:41.498Z,2.63
2023-01-05T06:08:09.303Z,3.42
2023-01-05T06:10:36.420Z,3.65
2023-01-05T06:13:04.509Z,2.78
2023-01-05T06:15:31.566Z,3.08
2023-01-05T06:17:58.347Z,3.65
2023-01-05T06:20:25.496Z,3.78
2023-01-05T06:22:52.246Z,3.88
2023-01-05T06:25:19.414Z,3.33
2023-01-05T06:27:46.202Z,3.30
2023-01-05T06:30:13.814Z,3.80
2023-01-05T06:32:40.670Z,3.58
2023-01-05T06:35:08.049Z,3.30
2023-01-05T06:37:34.835Z,4.10
2023-01-05T06:40:02.281Z,4.05
2023-01-05T06:42:29.081Z,3.65
2023-01-05T06:44:56.247Z,4.65
2023-01-05T06:47:23.078Z,4.40
2023-01-05T06:49:50.196Z,4.25
2023-01-05T06:52:17.204Z,4.47
2023-01-05T06:54:44.663Z,4.35
2023-01-05T06:57:11.715Z,3.75
2023-01-05T06:59:39.159Z,3.33
2023-01-05T07:02:06.869Z,3.67
2023-01-05T07:04:34.005Z,3.85
2023-01-05T07:07:00.802Z,2.83
2023-01-05T07:09:27.894Z,3.25
2023-01-05T07:11:54.670Z,2.85
2023-01-05T07:14:21.740Z,3.97
2023-01-05T07:16:48.548Z,3.00
2023-01-05T07:19:15.729Z,2.40
2023-01-05T07:21:42.535Z,2.30
2023-01-05T07:24:10.786Z,2.90
2023-01-05T07:26:37.565Z,2.00
2023-01-05T07:29:04.716Z,2.58
2023-01-05T07:31:31.558Z,2.03
2023-01-05T07:33:58.664Z,2.60
2023-01-05T07:36:25.560Z,2.10
2023-01-05T07:38:59.641Z,2.10
2023-01-05T07:41:26.597Z,2.10
2023-01-05T07:43:53.704Z,2.38
2023-01-05T07:46:20.640Z,2.30
2023-01-05T07:48:47.820Z,2.00
2023-01-05T07:51:14.616Z,2.42
2023-01-05T07:53:44.644Z,2.38
2023-01-05T07:56:12.227Z,2.03
2023-01-05T07:58:39.366Z,2.40
2023-01-05T08:01:08.313Z,2.15
2023-01-05T08:03:35.817Z,2.13
2023-01-05T08:06:09.166Z,1.95
2023-01-05T08:08:36.369Z,2.00
2023-01-05T08:11:06.956Z,1.65
2023-01-05T08:13:52.520Z,2.22
2023-01-05T08:16:19.418Z,1.83
2023-01-05T08:18:46.663Z,3.05
2023-01-05T08:21:13.500Z,1.92
2023-01-05T08:23:40.649Z,2.00
2023-01-05T08:26:14.738Z,2.53
2023-01-05T08:28:42.050Z,1.93
2023-01-05T08:31:12.474Z,1.73
2023-01-05T08:33:40.660Z,2.15
2023-01-05T08:36:11.526Z,2.80
2023-01-05T08:38:38.701Z,3.22
2023-01-05T08:41:05.677Z,3.80
2023-01-05T08:43:32.769Z,4.72
2023-01-05T08:45:59.643Z,4.80
2023-01-05T08:48:26.791Z,4.95
2023-01-05T08:50:53.663Z,6.20
2023-01-05T08:53:20.776Z,5.15
2023-01-05T08:55:47.633Z,4.95
2023-01-05T08:58:14.775Z,4.15
2023-01-05T09:00:41.680Z,4.43
2023-01-05T09:03:09.545Z,4.13
2023-01-05T09:05:36.451Z,4.43
2023-01-05T09:08:05.008Z,4.38
2023-01-05T09:10:31.776Z,3.50
2023-01-05T09:12:59.044Z,3.47
2023-01-05T09:15:25.832Z,3.72
2023-01-05T09:17:53.020Z,3.90
2023-01-05T09:20:19.883Z,4.03
2023-01-05T09:22:47.017Z,4.20
2023-01-05T09:25:13.854Z,3.70
2023-01-05T09:27:41.501Z,3.53
2023-01-05T09:30:09.028Z,3.33
2023-01-05T09:32:37.315Z,2.85
2023-01-05T09:35:04.591Z,2.97
2023-01-05T09:37:31.706Z,3.25
2023-01-05T09:39:58.502Z,2.90
2023-01-05T09:42:27.564Z,2.88
2023-01-05T09:45:00.513Z,2.50
2023-01-05T09:47:37.728Z,2.60
2023-01-05T09:50:11.740Z,2.95
2023-01-05T09:52:38.957Z,2.60
2023-01-05T09:55:17.089Z,2.88
2023-01-05T09:58:06.447Z,2.83
2023-01-05T10:00:33.300Z,3.42
2023-01-05T10:03:29.289Z,2.83
2023-01-05T10:05:59.627Z,3.47
2023-01-05T10:08:34.309Z,2.90
2023-01-05T10:11:26.678Z,3.27
2023-01-05T10:14:03.349Z,2.83
2023-01-05T10:16:30.209Z,3.50
2023-01-05T10:18:57.441Z,2.85
2023-01-05T10:21:51.248Z,2.78
2023-01-05T10:24:31.247Z,2.78
2023-01-05T10:27:26.836Z,2.63
2023-01-05T10:32:26.482Z,2.78
2023-01-05T10:35:00.629Z,2.58
2023-01-05T10:37:45.674Z,2.60
2023-01-05T10:40:46.821Z,2.00
2023-01-05T10:43:46.355Z,1.80
2023-01-05T10:46:33.874Z,2.58
2023-01-05T10:49:00.349Z,2.20
2023-01-05T10:51:32.216Z,2.00
2023-01-05T10:53:59.080Z,2.35
2023-01-05T10:56:28.711Z,2.00
2023-01-05T10:59:15.943Z,2.47
2023-01-05T11:01:44.132Z,3.03
2023-01-05T11:07:04.675Z,2.80
2023-01-05T11:09:31.548Z,2.25
2023-01-05T11:11:59.787Z,2.22
2023-01-05T11:14:27.378Z,2.80
2023-01-05T11:16:55.417Z,2.30
2023-01-05T11:19:33.459Z,2.60
2023-01-05T11:22:02.326Z,2.45
2023-01-05T11:24:34.317Z,3.38
2023-01-05T11:27:22.859Z,2.83
2023-01-05T11:30:17.250Z,2.83
2023-01-05T11:33:01.841Z,2.35
2023-01-05T11:35:33.502Z,2.95
2023-01-05T11:38:00.859Z,3.33
2023-01-05T11:40:29.930Z,3.10
2023-01-05T11:42:57.966Z,3.10
2023-01-05T11:45:32.829Z,2.58
2023-01-05T11:48:01.878Z,2.80
2023-01-05T11:50:31.284Z,3.60
2023-01-05T11:52:59.702Z,2.58
2023-01-05T11:55:37.962Z,2.75
2023-01-05T11:58:17.872Z,3.20
2023-01-05T12:01:12.881Z,2.63
2023-01-05T12:04:01.984Z,2.70
2023-01-05T12:06:35.057Z,2.65
2023-01-05T12:09:22.070Z,2.70
2023-01-05T12:11:58.951Z,2.60
2023-01-05T12:14:41.229Z,2.67
2023-01-05T12:17:15.591Z,2.72
2023-01-05T12:20:03.667Z,2.75
2023-01-05T12:22:42.639Z,2.72
2023-01-05T12:25:16.121Z,2.17
2023-01-05T12:28:35.658Z,2.53
2023-01-05T12:34:30.695Z,2.53
2023-01-05T12:37:22.037Z,2.30
2023-01-05T12:39:54.891Z,2.28
2023-01-05T12:43:12.542Z,2.40
2023-01-05T12:45:52.159Z,3.08
2023-01-05T12:48:33.925Z,2.70
2023-01-05T12:51:19.115Z,3.13
2023-01-05T12:53:50.805Z,2.65
2023-01-05T12:56:26.043Z,2.60
2023-01-05T12:59:05.345Z,3.22
2023-01-05T13:01:35.269Z,3.10
2023-01-05T13:04:04.196Z,3.47
2023-01-05T13:06:37.577Z,3.70
2023-01-05T13:09:17.121Z,3.90
2023-01-05T13:11:58.480Z,4.30
2023-01-05T13:14:31.042Z,3.42
2023-01-05T13:17:06.512Z,3.38
2023-01-05T13:19:36.648Z,4.03
2023-01-05T13:22:07.141Z,3.97
2023-01-05T13:24:50.544Z,3.65
2023-01-05T13:27:17.373Z,4.03
2023-01-05T13:29:47.080Z,4.35
2023-01-05T13:32:20.124Z,5.60
2023-01-05T13:35:21.581Z,5.95
2023-01-05T13:38:06.629Z,6.60
2023-01-05T13:40:52.553Z,6.22
2023-01-05T13:43:28.509Z,5.40
2023-01-05T13:46:20.222Z,5.00
2023-01-05T13:49:12.589Z,4.53
2023-01-05T13:52:03.277Z,4.53
2023-01-05T13:55:00.374Z,4.15
2023-01-05T13:57:30.329Z,4.32
2023-01-05T14:00:07.692Z,4.65
2023-01-05T14:02:38.948Z,3.97
2023-01-05T14:05:16.658Z,4.28
2023-01-05T14:07:43.836Z,3.22
2023-01-05T14:10:22.407Z,3.03
2023-01-05T14:12:50.278Z,3.60
2023-01-05T14:15:42.188Z,3.65
2023-01-05T14:18:46.865Z,3.28
2023-01-05T14:21:37.938Z,3.45
2023-01-05T14:24:23.939Z,3.40
2023-01-05T14:27:10.743Z,2.40
2023-01-05T14:32:37.898Z,2.78
2023-01-05T14:35:37.110Z,3.05
2023-01-05T14:38:16.351Z,2.65
2023-01-05T14:40:49.615Z,2.38
2023-01-05T14:43:21.260Z,2.22
2023-01-05T14:46:09.782Z,2.47
2023-01-05T14:48:39.674Z,2.45
2023-01-05T14:51:20.085Z,2.70
2023-01-05T14:53:48.245Z,2.67
2023-01-05T14:56:21.671Z,2.30
2023-01-05T14:59:01.329Z,2.92
2023-01-05T15:01:33.371Z,6.50
2023-01-05T15:04:03.293Z,6.75
2023-01-05T15:06:47.540Z,9.38
2023-01-05T15:09:41.485Z,14.77
2023-01-05T15:12:20.726Z,18.80
2023-01-05T15:14:53.573Z,24.30
2023-01-05T15:18:02.881Z,19.00
2023-01-05T15:21:11.658Z,16.40
2023-01-05T15:24:01.462Z,13.85
2023-01-05T15:26:47.039Z,12.93
2023-01-05T15:29:41.830Z,10.38
2023-01-05T15:32:21.129Z,8.07
2023-01-05T15:34:52.094Z,7.22
2023-01-05T15:37:36.163Z,8.25
2023-01-05T15:40:07.573Z,6.20
2023-01-05T15:42:45.044Z,5.68
2023-01-05T15:45:28.059Z,4.90
2023-01-05T15:47:56.726Z,4.70
2023-01-05T15:50:47.457Z,4.53
2023-01-05T15:53:27.462Z,4.53
2023-01-05T15:55:54.958Z,4.90
2023-01-05T15:58:21.970Z,4.18
2023-01-05T16:01:01.271Z,3.75
2023-01-05T16:03:30.311Z,3.08
2023-01-05T16:05:58.717Z,4.57
2023-01-05T16:08:25.556Z,3.47
2023-01-05T16:10:56.041Z,3.05
2023-01-05T16:13:30.382Z,2.40
2023-01-05T16:15:58.731Z,3.00
2023-01-05T16:18:28.154Z,2.22
2023-01-05T16:20:56.078Z,2.83
2023-01-05T16:23:40.390Z,2.92
2023-01-05T16:26:13.391Z,3.45
2023-01-05T16:28:40.499Z,3.40
2023-01-05T16:31:28.922Z,3.22
2023-01-05T16:34:29.530Z,3.83
2023-01-05T16:36:59.625Z,4.18
2023-01-05T16:39:27.237Z,3.60
2023-01-05T16:42:23.628Z,3.88
2023-01-05T16:44:56.679Z,4.28
2023-01-05T16:47:38.083Z,4.30
2023-01-05T16:50:37.311Z,4.55
2023-01-05T16:53:14.344Z,3.67
2023-01-05T16:55:41.295Z,4.60
2023-01-05T16:58:29.815Z,3.88
2023-01-05T17:01:24.342Z,4.63
2023-01-05T17:03:51.814Z,4.85
2023-01-05T17:06:27.444Z,5.90
2023-01-05T17:08:55.566Z,6.10
2023-01-05T17:11:22.387Z,5.15
2023-01-05T17:13:53.852Z,5.28
2023-01-05T17:16:21.231Z,5.35
2023-01-05T17:18:49.932Z,5.40
2023-01-05T17:21:18.982Z,4.93
2023-01-05T17:23:48.548Z,4.40
2023-01-05T17:26:35.804Z,4.53
2023-01-05T17:31:35.437Z,4.75
2023-01-05T17:34:02.621Z,5.65
2023-01-05T17:36:32.577Z,5.75
2023-01-05T17:39:00.109Z,6.95
2023-01-05T17:41:26.933Z,6.47
2023-01-05T17:43:54.048Z,6.25
2023-01-05T17:46:22.393Z,6.57
2023-01-05T17:48:49.581Z,6.15
2023-01-05T17:51:16.445Z,6.10
2023-01-05T17:53:43.527Z,6.10
2023-01-05T17:56:10.299Z,5.65
2023-01-05T17:58:37.795Z,5.72
2023-01-05T18:01:06.259Z,5.40
2023-01-05T18:03:33.420Z,5.38
2023-01-05T18:06:00.830Z,4.70
2023-01-05T18:08:27.998Z,5.72
2023-01-05T18:10:54.852Z,4.80
2023-01-05T18:13:22.858Z,5.15
2023-01-05T18:15:50.678Z,5.40
2023-01-05T18:18:18.644Z,5.57
2023-01-05T18:20:45.775Z,4.85
2023-01-05T18:23:12.581Z,4.75
2023-01-05T18:25:39.732Z,5.15
2023-01-05T18:28:06.868Z,5.20
2023-01-05T18:30:33.941Z,5.63
2023-01-05T18:33:00.794Z,5.40
2023-01-05T18:35:27.899Z,5.47
2023-01-05T18:38:01.065Z,5.88
2023-01-05T18:40:28.616Z,4.93
2023-01-05T18:42:55.517Z,4.53
2023-01-05T18:45:31.935Z,5.25
2023-01-05T18:48:04.973Z,4.68
2023-01-05T18:50:32.066Z,3.63
2023-01-05T18:52:58.937Z,4.05
2023-01-05T18:55:26.016Z,3.45
2023-01-05T18:57:52.905Z,3.17
2023-01-05T19:00:20.907Z,3.15
2023-01-05T19:02:48.843Z,3.67
2023-01-05T19:05:16.254Z,2.80
2023-01-05T19:07:43.003Z,2.60
2023-01-05T19:10:10.112Z,2.83
2023-01-05T19:12:37.078Z,2.30
2023-01-05T19:15:04.458Z,3.15
2023-01-05T19:17:33.604Z,3.13
2023-01-05T19:20:00.799Z,3.40
2023-01-05T19:22:27.794Z,3.65
2023-01-05T19:24:54.945Z,2.97
2023-01-05T19:27:21.868Z,2.55
2023-01-05T19:29:49.078Z,3.05
2023-01-05T19:32:15.866Z,2.88
2023-01-05T19:34:43.039Z,3.30
2023-01-05T19:37:09.951Z,2.28
2023-01-05T19:39:38.253Z,2.60
2023-01-05T19:42:05.923Z,2.72
2023-01-05T19:44:33.105Z,2.53
2023-01-05T19:46:59.918Z,2.50
2023-01-05T19:49:27.379Z,2.75
2023-01-05T19:51:54.369Z,3.33
2023-01-05T19:54:22.601Z,3.35
2023-01-05T19:56:49.613Z,3.10
2023-01-05T19:59:24.623Z,4.57
2023-01-05T20:01:52.237Z,4.90
2023-01-05T20:04:19.451Z,4.60
2023-01-05T20:06:46.271Z,5.75
2023-01-05T20:09:15.203Z,5.32
2023-01-05T20:11:43.737Z,6.32
2023-01-05T20:14:18.208Z,8.32
2023-01-05T20:16:56.855Z,8.30
2023-01-05T20:19:26.782Z,10.75
2023-01-05T20:21:54.204Z,15.18
2023-01-05T20:24:23.482Z,17.05
2023-01-05T20:26:51.471Z,18.35
2023-01-05T20:29:19.484Z,19.52
2023-01-05T20:31:49.360Z,17.98
2023-01-05T20:34:19.308Z,19.35
2023-01-05T20:36:46.275Z,16.73
2023-01-05T20:39:16.235Z,15.70
2023-01-05T20:41:43.728Z,13.88
2023-01-05T20:44:11.049Z,13.23
2023-01-05T20:46:40.616Z,10.32
2023-01-05T20:49:08.025Z,9.65
2023-01-05T20:51:34.938Z,7.82
2023-01-05T20:54:02.677Z,7.47
2023-01-05T20:56:33.873Z,6.40
2023-01-05T20:59:00.991Z,5.03
2023-01-05T21:01:27.894Z,4.90
2023-01-05T21:03:55.044Z,3.85
2023-01-05T21:06:21.873Z,3.45
2023-01-05T21:08:50.192Z,4.03
2023-01-05T21:11:18.142Z,3.05
2023-01-05T21:13:49.632Z,3.45
2023-01-05T21:16:18.787Z,3.13
2023-01-05T21:18:45.983Z,2.72
2023-01-05T21:21:14.316Z,2.33
2023-01-05T21:23:41.454Z,2.22
2023-01-05T21:26:13.700Z,1.80
2023-01-05T21:28:43.249Z,2.03
2023-01-05T21:31:18.136Z,1.83
2023-01-05T21:33:45.316Z,1.75
2023-01-05T21:36:17.996Z,1.92
2023-01-05T21:39:00.086Z,1.92
2023-01-05T21:41:46.144Z,1.98
2023-01-05T21:46:41.137Z,2.00
2023-01-05T21:49:09.072Z,1.80
2023-01-05T21:51:54.432Z,2.03
2023-01-05T21:54:40.074Z,2.28
2023-01-05T21:57:06.877Z,1.88
2023-01-05T21:59:33.992Z,2.58
2023-01-05T22:02:00.811Z,1.73
2023-01-05T22:04:27.893Z,1.90
2023-01-05T22:06:54.710Z,1.92
2023-01-05T22:09:21.812Z,2.88
2023-01-05T22:11:48.668Z,2.60
2023-01-05T22:14:16.121Z,2.63
2023-01-05T22:16:42.969Z,3.08
2023-01-05T22:19:11.148Z,2.67
2023-01-05T22:21:38.139Z,2.42
2023-01-05T22:24:06.011Z,2.38
2023-01-05T22:26:32.790Z,2.28
2023-01-05T22:28:59.973Z,2.55
2023-01-05T22:31:28.442Z,2.35
2023-01-05T22:33:57.887Z,1.95
2023-01-05T22:36:25.360Z,2.42
2023-01-05T22:38:52.805Z,2.15
2023-01-05T22:41:25.488Z,3.17
2023-01-05T22:43:52.827Z,1.80
2023-01-05T22:46:21.075Z,2.63
2023-01-05T22:48:49.977Z,2.25
2023-01-05T22:51:18.889Z,2.35
2023-01-05T22:53:46.134Z,1.98
2023-01-05T22:56:13.846Z,2.47
2023-01-05T22:58:41.026Z,2.15
2023-01-05T23:01:15.224Z,2.10
2023-01-05T23:03:42.902Z,2.17
2023-01-05T23:06:09.748Z,2.22
2023-01-05T23:08:37.860Z,1.98
2023-01-05T23:11:07.304Z,2.65
2023-01-05T23:13:34.392Z,2.38
2023-01-05T23:16:01.317Z,2.15
2023-01-05T23:18:28.358Z,2.45
2023-01-05T23:20:56.384Z,1.90
2023-01-05T23:23:23.771Z,2.15
2023-01-05T23:25:51.218Z,2.35
2023-01-05T23:28:18.896Z,2.08
2023-01-05T23:30:46.336Z,2.83
2023-01-05T23:33:14.088Z,2.88
2023-01-05T23:35:42.224Z,2.08
2023-01-05T23:38:09.473Z,2.60
2023-01-05T23:40:47.074Z,2.00
2023-01-05T23:43:15.162Z,2.33
2023-01-05T23:45:43.124Z,2.28
2023-01-05T23:48:10.698Z,2.72
2023-01-05T23:50:40.611Z,2.40
2023-01-05T23:53:07.702Z,2.42
2023-01-05T23:55:34.571Z,2.83
2023-01-05T23:58:01.653Z,3.00
